createdAt,value
2019-04-25T00:00:33.827Z,952.59
2019-04-25T00:01:33.828Z,952.58
2019-04-25T00:02:33.797Z,952.59
2019-04-25T00:03:33.787Z,952.63
2019-04-25T00:04:33.775Z,952.63
2019-04-25T00:05:33.768Z,952.59
2019-04-25T00:06:33.784Z,952.62
2019-04-25T00:07:33.748Z,952.63
2019-04-25T00:08:33.727Z,952.63
2019-04-25T00:09:33.715Z,952.65
2019-04-25T00:10:33.728Z,952.68
2019-04-25T00:11:33.722Z,952.61
2019-04-25T00:12:33.688Z,952.62
2019-04-25T00:13:33.673Z,952.60
2019-04-25T00:14:33.657Z,952.64
2019-04-25T00:15:33.658Z,952.60
2019-04-25T00:16:33.668Z,952.59
2019-04-25T00:17:33.650Z,952.57
2019-04-25T00:18:33.626Z,952.54
2019-04-25T00:19:33.615Z,952.52
2019-04-25T00:20:33.607Z,952.54
2019-04-25T00:21:33.902Z,952.60
2019-04-25T00:22:33.626Z,952.55
2019-04-25T00:23:33.567Z,952.56
2019-04-25T00:24:33.554Z,952.60
2019-04-25T00:25:33.537Z,952.55
2019-04-25T00:26:33.536Z,952.62
2019-04-25T00:27:35.216Z,952.64
2019-04-25T00:28:33.506Z,952.57
2019-04-25T00:29:33.516Z,952.61
2019-04-25T00:30:33.487Z,952.67
2019-04-25T00:31:33.476Z,952.67
2019-04-25T00:32:33.476Z,952.69
2019-04-25T00:33:33.455Z,952.75
2019-04-25T00:34:33.673Z,952.71
2019-04-25T00:35:33.558Z,952.68
2019-04-25T00:36:33.427Z,952.77
2019-04-25T00:37:33.428Z,952.74
2019-04-25T00:38:33.396Z,952.73
2019-04-25T00:39:33.393Z,952.76
2019-04-25T00:40:33.376Z,952.75
2019-04-25T00:41:34.210Z,952.81
2019-04-25T00:42:33.386Z,952.78
2019-04-25T00:43:33.349Z,952.84
2019-04-25T00:44:33.325Z,952.79
2019-04-25T00:45:33.316Z,952.79
2019-04-25T00:46:33.306Z,952.80
2019-04-25T00:47:33.397Z,952.86
2019-04-25T00:48:33.290Z,952.80
2019-04-25T00:49:33.304Z,952.87
2019-04-25T00:50:33.278Z,952.81
2019-04-25T00:51:33.254Z,952.81
2019-04-25T00:52:33.365Z,952.79
2019-04-25T00:53:33.245Z,952.82
2019-04-25T00:54:33.250Z,952.83
2019-04-25T00:55:33.215Z,952.84
2019-04-25T00:56:33.215Z,952.88
2019-04-25T00:57:33.258Z,952.86
2019-04-25T00:58:33.188Z,952.94
2019-04-25T00:59:33.168Z,952.94
2019-04-25T01:00:33.172Z,952.94
2019-04-25T01:01:33.141Z,952.85
2019-04-25T01:02:33.155Z,952.78
2019-04-25T01:03:33.165Z,952.79
2019-04-25T01:04:33.610Z,952.82
2019-04-25T01:05:33.109Z,952.79
2019-04-25T01:06:33.093Z,952.79
2019-04-25T01:07:34.488Z,952.76
2019-04-25T01:08:33.084Z,952.81
2019-04-25T01:09:33.055Z,952.82
2019-04-25T01:10:33.047Z,952.80
2019-04-25T01:11:33.034Z,952.77
2019-04-25T01:12:33.035Z,952.76
2019-04-25T01:13:33.145Z,952.76
2019-04-25T01:14:33.773Z,952.76
2019-04-25T01:15:32.989Z,952.81
2019-04-25T01:16:32.975Z,952.79
2019-04-25T01:17:32.974Z,952.77
2019-04-25T01:18:33.737Z,952.77
2019-04-25T01:19:34.364Z,952.78
2019-04-25T01:20:34.389Z,952.85
2019-04-25T01:21:34.000Z,952.74
2019-04-25T01:22:34.336Z,952.77
2019-04-25T01:23:33.645Z,952.83
2019-04-25T01:24:34.014Z,952.83
2019-04-25T01:25:40.431Z,952.70
2019-04-25T01:26:33.960Z,952.70
2019-04-25T01:27:33.279Z,952.73
2019-04-25T01:28:33.587Z,952.62
2019-04-25T01:29:33.491Z,952.67
2019-04-25T01:30:33.954Z,952.69
2019-04-25T01:31:33.599Z,952.71
2019-04-25T01:32:33.500Z,952.66
2019-04-25T01:33:33.345Z,952.72
2019-04-25T01:34:34.246Z,952.66
2019-04-25T01:35:33.453Z,952.71
2019-04-25T01:36:33.216Z,952.67
2019-04-25T01:37:34.100Z,952.64
2019-04-25T01:38:33.518Z,952.64
2019-04-25T01:39:34.190Z,952.59
2019-04-25T01:40:33.391Z,952.61
2019-04-25T01:41:34.154Z,952.56
2019-04-25T01:42:33.760Z,952.57
2019-04-25T01:43:33.196Z,952.62
2019-04-25T01:44:34.077Z,952.59
2019-04-25T01:45:33.906Z,952.61
2019-04-25T01:46:34.133Z,952.62
2019-04-25T01:47:33.616Z,952.63
2019-04-25T01:48:33.342Z,952.65
2019-04-25T01:49:33.942Z,952.57
2019-04-25T01:50:33.199Z,952.55
2019-04-25T01:51:33.924Z,952.59
2019-04-25T01:52:33.481Z,952.60
2019-04-25T01:53:33.929Z,952.58
2019-04-25T01:54:33.938Z,952.61
2019-04-25T01:55:33.577Z,952.62
2019-04-25T01:56:33.291Z,952.63
2019-04-25T01:57:33.741Z,952.68
2019-04-25T01:58:33.749Z,952.66
2019-04-25T01:59:33.838Z,952.68
2019-04-25T02:00:33.283Z,952.65
2019-04-25T02:01:34.011Z,952.62
2019-04-25T02:02:33.605Z,952.71
2019-04-25T02:03:35.423Z,952.61
2019-04-25T02:04:34.065Z,952.71
2019-04-25T02:05:33.810Z,952.64
2019-04-25T02:06:33.443Z,952.61
2019-04-25T02:07:33.383Z,952.61
2019-04-25T02:08:34.001Z,952.59
2019-04-25T02:09:33.675Z,952.65
2019-04-25T02:10:32.381Z,952.61
2019-04-25T02:11:33.922Z,952.63
2019-04-25T02:12:33.610Z,952.62
2019-04-25T02:13:33.583Z,952.53
2019-04-25T02:14:33.619Z,952.59
2019-04-25T02:15:33.435Z,952.52
2019-04-25T02:16:33.563Z,952.57
2019-04-25T02:17:33.952Z,952.65
2019-04-25T02:18:33.585Z,952.57
2019-04-25T02:19:34.275Z,952.60
2019-04-25T02:20:33.796Z,952.61
2019-04-25T02:21:33.500Z,952.64
2019-04-25T02:22:32.260Z,952.66
2019-04-25T02:23:32.243Z,952.63
2019-04-25T02:24:33.761Z,952.60
2019-04-25T02:25:33.232Z,952.56
2019-04-25T02:26:32.192Z,952.61
2019-04-25T02:27:32.193Z,952.59
2019-04-25T02:28:33.692Z,952.51
2019-04-25T02:29:33.261Z,952.51
2019-04-25T02:30:35.312Z,952.54
2019-04-25T02:31:34.446Z,952.59
2019-04-25T02:32:34.454Z,952.56
2019-04-25T02:33:34.041Z,952.61
2019-04-25T02:34:34.357Z,952.66
2019-04-25T02:35:34.731Z,952.64
2019-04-25T02:36:34.420Z,952.62
2019-04-25T02:37:32.074Z,952.54
2019-04-25T02:38:34.031Z,952.56
2019-04-25T02:39:34.868Z,952.54
2019-04-25T02:40:33.851Z,952.53
2019-04-25T02:41:34.271Z,952.58
2019-04-25T02:42:34.231Z,952.54
2019-04-25T02:43:32.011Z,952.64
2019-04-25T02:44:32.005Z,952.57
2019-04-25T02:45:34.243Z,952.64
2019-04-25T02:46:31.982Z,952.61
2019-04-25T02:47:34.272Z,952.63
2019-04-25T02:48:34.180Z,952.61
2019-04-25T02:49:38.207Z,952.62
2019-04-25T02:50:34.329Z,952.59
2019-04-25T02:51:31.944Z,952.56
2019-04-25T02:52:34.232Z,952.60
2019-04-25T02:53:36.495Z,952.54
2019-04-25T02:54:34.858Z,952.62
2019-04-25T02:55:35.026Z,952.61
2019-04-25T02:56:37.612Z,952.58
2019-04-25T02:57:34.550Z,952.55
2019-04-25T02:58:34.086Z,952.56
2019-04-25T02:59:31.841Z,952.59
2019-04-25T03:04:28.885Z,952.45
2019-04-25T03:05:01.324Z,952.55
2019-04-25T03:06:01.395Z,952.54
2019-04-25T03:07:01.994Z,952.53
2019-04-25T03:08:01.474Z,952.49
2019-04-25T03:09:00.658Z,952.48
2019-04-25T03:10:01.836Z,952.50
2019-04-25T03:11:01.311Z,952.45
2019-04-25T03:12:00.115Z,952.49
2019-04-25T03:13:00.415Z,952.50
2019-04-25T03:14:00.551Z,952.49
2019-04-25T03:15:00.188Z,952.50
2019-04-25T03:16:00.608Z,952.55
2019-04-25T03:17:00.389Z,952.51
2019-04-25T03:18:00.251Z,952.52
2019-04-25T03:19:00.528Z,952.55
2019-04-25T03:20:01.349Z,952.51
2019-04-25T03:21:01.276Z,952.55
2019-04-25T03:22:01.473Z,952.58
2019-04-25T03:23:01.130Z,952.58
2019-04-25T03:24:01.315Z,952.61
2019-04-25T03:25:01.814Z,952.56
2019-04-25T03:26:00.620Z,952.53
2019-04-25T03:27:00.811Z,952.56
2019-04-25T03:28:01.149Z,952.49
2019-04-25T03:28:59.874Z,952.52
2019-04-25T03:29:59.887Z,952.49
2019-04-25T03:31:01.725Z,952.56
2019-04-25T03:32:00.915Z,952.55
2019-04-25T03:33:02.215Z,952.53
2019-04-25T03:34:02.139Z,952.56
2019-04-25T03:35:01.170Z,952.54
2019-04-25T03:36:00.695Z,952.57
2019-04-25T03:36:59.786Z,952.61
2019-04-25T03:38:01.128Z,952.58
2019-04-25T03:38:59.997Z,952.59
2019-04-25T03:39:59.761Z,952.54
2019-04-25T03:41:00.181Z,952.61
2019-04-25T03:41:59.733Z,952.58
2019-04-25T03:43:00.503Z,952.58
2019-04-25T03:43:59.707Z,952.56
2019-04-25T03:44:59.696Z,952.59
2019-04-25T03:45:59.684Z,952.62
2019-04-25T03:46:59.674Z,952.59
2019-04-25T03:47:59.683Z,952.59
2019-04-25T03:48:59.678Z,952.58
2019-04-25T03:49:59.644Z,952.61
2019-04-25T03:50:59.632Z,952.60
2019-04-25T03:51:59.623Z,952.57
2019-04-25T03:52:59.623Z,952.57
2019-04-25T03:53:59.611Z,952.58
2019-04-25T03:54:59.588Z,952.62
2019-04-25T03:55:59.574Z,952.60
2019-04-25T03:56:59.562Z,952.63
2019-04-25T03:57:59.573Z,952.64
2019-04-25T03:58:59.546Z,952.62
2019-04-25T03:59:59.532Z,952.64
2019-04-25T04:00:59.529Z,952.63
2019-04-25T04:02:01.168Z,952.64
2019-04-25T04:02:59.513Z,952.66
2019-04-25T04:03:59.538Z,952.71
2019-04-25T04:04:59.476Z,952.72
2019-04-25T04:05:59.464Z,952.66
2019-04-25T04:06:59.452Z,952.69
2019-04-25T04:07:59.450Z,952.69
2019-04-25T04:08:59.442Z,952.66
2019-04-25T04:09:59.414Z,952.69
2019-04-25T04:10:59.412Z,952.64
2019-04-25T04:11:59.410Z,952.69
2019-04-25T04:12:59.388Z,952.68
2019-04-25T04:13:59.393Z,952.63
2019-04-25T04:14:59.364Z,952.63
2019-04-25T04:15:59.347Z,952.67
2019-04-25T04:16:59.344Z,952.65
2019-04-25T04:17:59.331Z,952.61
2019-04-25T04:18:59.331Z,952.63
2019-04-25T04:19:59.305Z,952.59
2019-04-25T04:20:59.303Z,952.67
2019-04-25T04:21:59.284Z,952.67
2019-04-25T04:22:59.284Z,952.68
2019-04-25T04:23:59.382Z,952.69
2019-04-25T04:24:59.250Z,952.66
2019-04-25T04:25:59.241Z,952.68
2019-04-25T04:27:03.712Z,952.76
2019-04-25T04:28:00.212Z,952.70
2019-04-25T04:28:59.231Z,952.85
2019-04-25T04:29:59.202Z,952.84
2019-04-25T04:30:59.197Z,952.82
2019-04-25T04:31:59.173Z,952.82
2019-04-25T04:32:59.171Z,952.78
2019-04-25T04:33:59.203Z,952.82
2019-04-25T04:34:59.170Z,952.80
2019-04-25T04:35:59.122Z,952.81
2019-04-25T04:36:59.177Z,952.87
2019-04-25T04:37:59.140Z,952.82
2019-04-25T04:38:59.143Z,952.79
2019-04-25T04:39:59.122Z,952.89
2019-04-25T04:40:59.110Z,952.83
2019-04-25T04:41:59.070Z,952.86
2019-04-25T04:42:59.053Z,952.89
2019-04-25T04:43:59.052Z,952.89
2019-04-25T04:44:59.034Z,952.86
2019-04-25T04:45:59.019Z,952.87
2019-04-25T04:46:59.015Z,952.88
2019-04-25T04:47:59.030Z,952.88
2019-04-25T04:48:59.006Z,952.94
2019-04-25T04:49:58.969Z,952.93
2019-04-25T04:50:58.966Z,952.90
2019-04-25T04:51:58.962Z,952.89
2019-04-25T04:52:58.972Z,952.84
2019-04-25T04:53:58.944Z,952.86
2019-04-25T04:55:06.329Z,952.81
2019-04-25T04:55:59.911Z,952.79
2019-04-25T04:56:58.899Z,952.88
2019-04-25T04:58:01.353Z,952.78
2019-04-25T04:58:58.889Z,952.79
2019-04-25T04:59:58.860Z,952.79
2019-04-25T05:00:58.851Z,952.77
2019-04-25T05:01:58.852Z,952.74
2019-04-25T05:02:58.838Z,952.69
2019-04-25T05:03:58.842Z,952.71
2019-04-25T05:04:59.710Z,952.74
2019-04-25T05:05:58.816Z,952.84
2019-04-25T05:06:58.787Z,952.83
2019-04-25T05:07:58.797Z,952.86
2019-04-25T05:08:58.781Z,952.94
2019-04-25T05:09:58.773Z,952.86
2019-04-25T05:10:58.739Z,952.83
2019-04-25T05:11:58.730Z,952.90
2019-04-25T05:12:58.738Z,952.89
2019-04-25T05:13:58.726Z,952.87
2019-04-25T05:14:58.720Z,952.88
2019-04-25T05:15:58.691Z,952.90
2019-04-25T05:16:58.679Z,952.91
2019-04-25T05:17:58.661Z,952.91
2019-04-25T05:18:58.656Z,952.92
2019-04-25T05:19:58.659Z,952.96
2019-04-25T05:20:58.628Z,952.90
2019-04-25T05:21:58.620Z,952.95
2019-04-25T05:22:58.603Z,952.93
2019-04-25T05:23:58.597Z,952.94
2019-04-25T05:24:58.601Z,952.86
2019-04-25T05:25:58.579Z,952.92
2019-04-25T05:26:58.580Z,952.83
2019-04-25T05:28:02.898Z,952.83
2019-04-25T05:28:59.545Z,952.95
2019-04-25T05:29:58.548Z,952.97
2019-04-25T05:30:58.520Z,953.04
2019-04-25T05:31:58.527Z,952.99
2019-04-25T05:32:58.489Z,953.03
2019-04-25T05:33:58.486Z,953.06
2019-04-25T05:34:58.501Z,952.93
2019-04-25T05:35:58.476Z,953.00
2019-04-25T05:36:58.447Z,952.95
2019-04-25T05:37:58.437Z,952.89
2019-04-25T05:38:58.426Z,952.92
2019-04-25T05:39:58.453Z,952.91
2019-04-25T05:40:58.426Z,952.94
2019-04-25T05:41:58.400Z,952.88
2019-04-25T05:42:58.398Z,952.91
2019-04-25T05:43:58.377Z,952.91
2019-04-25T05:44:58.358Z,952.97
2019-04-25T05:45:58.378Z,952.90
2019-04-25T05:46:58.358Z,952.90
2019-04-25T05:47:58.336Z,952.90
2019-04-25T05:48:58.317Z,952.77
2019-04-25T05:49:58.315Z,952.90
2019-04-25T05:50:58.307Z,952.83
2019-04-25T05:51:58.296Z,952.85
2019-04-25T05:52:58.313Z,952.82
2019-04-25T05:53:58.266Z,952.80
2019-04-25T05:54:58.255Z,952.80
2019-04-25T05:55:58.258Z,952.76
2019-04-25T05:56:58.233Z,952.81
2019-04-25T05:57:58.245Z,952.77
2019-04-25T05:58:58.235Z,952.72
2019-04-25T05:59:58.198Z,952.75
2019-04-25T06:00:58.225Z,952.77
2019-04-25T06:01:58.171Z,952.80
2019-04-25T06:02:58.180Z,952.81
2019-04-25T06:03:58.169Z,952.87
2019-04-25T06:04:58.173Z,952.83
2019-04-25T06:05:58.150Z,952.86
2019-04-25T06:06:58.139Z,952.82
2019-04-25T06:07:58.116Z,952.84
2019-04-25T06:08:58.097Z,952.85
2019-04-25T06:09:58.118Z,952.87
2019-04-25T06:10:58.104Z,952.86
2019-04-25T06:11:58.080Z,952.91
2019-04-25T06:12:58.055Z,952.86
2019-04-25T06:14:00.191Z,952.81
2019-04-25T06:14:58.043Z,952.83
2019-04-25T06:15:58.042Z,952.88
2019-04-25T06:16:58.120Z,952.84
2019-04-25T06:17:57.997Z,952.80
2019-04-25T06:18:57.989Z,952.79
2019-04-25T06:19:57.980Z,952.83
2019-04-25T06:20:57.995Z,952.84
2019-04-25T06:21:57.966Z,952.82
2019-04-25T06:22:57.969Z,952.83
2019-04-25T06:23:57.927Z,952.80
2019-04-25T06:24:57.978Z,952.79
2019-04-25T06:25:57.918Z,952.78
2019-04-25T06:26:57.897Z,952.77
2019-04-25T06:27:59.168Z,952.75
2019-04-25T06:28:59.831Z,952.77
2019-04-25T06:30:00.781Z,952.77
2019-04-25T06:30:57.856Z,952.76
2019-04-25T06:32:05.726Z,952.74
2019-04-25T06:32:58.863Z,952.75
2019-04-25T06:33:57.848Z,952.75
2019-04-25T06:34:57.817Z,952.78
2019-04-25T06:35:57.798Z,952.74
2019-04-25T06:36:57.786Z,952.75
2019-04-25T06:37:57.786Z,952.78
2019-04-25T06:38:57.808Z,952.75
2019-04-25T06:39:57.767Z,952.75
2019-04-25T06:40:57.752Z,952.70
2019-04-25T06:41:57.755Z,952.73
2019-04-25T06:42:57.729Z,952.77
2019-04-25T06:43:57.717Z,952.77
2019-04-25T06:44:57.706Z,952.76
2019-04-25T06:45:57.706Z,952.80
2019-04-25T06:46:57.736Z,952.79
2019-04-25T06:47:57.675Z,952.73
2019-04-25T06:48:57.677Z,952.74
2019-04-25T06:49:57.659Z,952.72
2019-04-25T06:50:57.637Z,952.72
2019-04-25T06:51:57.646Z,952.71
2019-04-25T06:52:57.615Z,952.69
2019-04-25T06:53:57.609Z,952.69
2019-04-25T06:54:57.595Z,952.70
2019-04-25T06:55:57.580Z,952.69
2019-04-25T06:56:57.640Z,952.73
2019-04-25T06:58:09.127Z,952.78
2019-04-25T07:00:07.414Z,952.62
2019-04-25T07:01:07.391Z,952.69
2019-04-25T07:02:07.400Z,952.66
2019-04-25T07:03:07.390Z,952.63
2019-04-25T07:04:07.361Z,952.73
2019-04-25T07:05:07.352Z,952.67
2019-04-25T07:06:07.381Z,952.70
2019-04-25T07:07:12.144Z,952.66
2019-04-25T07:08:08.352Z,952.70
2019-04-25T07:09:07.311Z,952.66
2019-04-25T07:10:07.560Z,952.66
2019-04-25T07:11:07.294Z,952.67
2019-04-25T07:12:07.270Z,952.74
2019-04-25T07:13:07.283Z,952.70
2019-04-25T07:14:07.272Z,952.65
2019-04-25T07:15:07.255Z,952.64
2019-04-25T07:16:07.231Z,952.61
2019-04-25T07:17:07.231Z,952.57
2019-04-25T07:18:07.217Z,952.58
2019-04-25T07:19:07.231Z,952.63
2019-04-25T07:20:07.191Z,952.67
2019-04-25T07:21:07.171Z,952.64
2019-04-25T07:22:07.170Z,952.55
2019-04-25T07:23:07.151Z,952.55
2019-04-25T07:24:07.305Z,952.62
2019-04-25T07:25:07.131Z,952.63
2019-04-25T07:26:07.128Z,952.61
2019-04-25T07:27:07.112Z,952.66
2019-04-25T07:28:07.101Z,952.59
2019-04-25T07:29:07.109Z,952.61
2019-04-25T07:30:07.090Z,952.56
2019-04-25T07:31:07.062Z,952.53
2019-04-25T07:32:07.060Z,952.54
2019-04-25T07:33:07.074Z,952.55
2019-04-25T07:34:07.048Z,952.57
2019-04-25T07:35:07.022Z,952.59
2019-04-25T07:36:07.160Z,952.53
2019-04-25T07:37:07.001Z,952.48
2019-04-25T07:38:06.990Z,952.47
2019-04-25T07:39:10.387Z,952.51
2019-04-25T07:40:06.969Z,952.56
2019-04-25T07:41:06.981Z,952.52
2019-04-25T07:42:06.970Z,952.48
2019-04-25T07:43:06.940Z,952.56
2019-04-25T07:44:06.941Z,952.48
2019-04-25T07:45:06.948Z,952.53
2019-04-25T07:46:06.899Z,952.42
2019-04-25T07:47:06.888Z,952.42
2019-04-25T07:48:06.882Z,952.36
2019-04-25T07:49:06.903Z,952.37
2019-04-25T07:50:06.881Z,952.42
2019-04-25T07:51:06.841Z,952.39
2019-04-25T07:52:06.840Z,952.41
2019-04-25T07:53:06.852Z,952.44
2019-04-25T07:54:06.810Z,952.48
2019-04-25T07:55:06.821Z,952.49
2019-04-25T07:56:06.791Z,952.53
2019-04-25T07:57:06.782Z,952.49
2019-04-25T07:58:06.771Z,952.49
2019-04-25T07:59:06.770Z,952.45
2019-04-25T08:00:06.780Z,952.43
2019-04-25T08:01:06.731Z,952.41
2019-04-25T08:02:06.722Z,952.44
2019-04-25T08:03:06.711Z,952.43
2019-04-25T08:04:06.723Z,952.42
2019-04-25T08:05:06.710Z,952.43
2019-04-25T08:06:06.681Z,952.32
2019-04-25T08:07:06.661Z,952.31
2019-04-25T08:08:06.660Z,952.33
2019-04-25T08:09:06.652Z,952.37
2019-04-25T08:10:06.662Z,952.28
2019-04-25T08:11:06.624Z,952.32
2019-04-25T08:12:06.612Z,952.33
2019-04-25T08:13:06.631Z,952.35
2019-04-25T08:14:06.594Z,952.34
2019-04-25T08:15:06.621Z,952.33
2019-04-25T08:16:06.586Z,952.29
2019-04-25T08:17:06.561Z,952.28
2019-04-25T08:18:06.551Z,952.25
2019-04-25T08:19:06.541Z,952.23
2019-04-25T08:20:06.521Z,952.23
2019-04-25T08:21:06.577Z,952.23
2019-04-25T08:22:06.501Z,952.26
2019-04-25T08:23:06.500Z,952.25
2019-04-25T08:24:06.481Z,952.29
2019-04-25T08:25:06.471Z,952.26
2019-04-25T08:26:06.519Z,952.27
2019-04-25T08:27:06.449Z,952.28
2019-04-25T08:28:06.462Z,952.25
2019-04-25T08:29:06.466Z,952.30
2019-04-25T08:30:06.422Z,952.21
2019-04-25T08:31:06.421Z,952.23
2019-04-25T08:32:06.402Z,952.24
2019-04-25T08:33:06.390Z,952.23
2019-04-25T08:34:06.394Z,952.27
2019-04-25T08:35:06.373Z,952.23
2019-04-25T08:36:09.072Z,952.25
2019-04-25T08:37:17.526Z,952.17
2019-04-25T08:38:07.331Z,952.16
2019-04-25T08:39:06.332Z,952.17
2019-04-25T08:40:06.302Z,952.20
2019-04-25T08:41:06.294Z,952.20
2019-04-25T08:42:06.305Z,952.27
2019-04-25T08:43:06.292Z,952.31
2019-04-25T08:44:06.274Z,952.27
2019-04-25T08:45:06.255Z,952.21
2019-04-25T08:46:06.241Z,952.22
2019-04-25T08:47:06.245Z,952.16
2019-04-25T08:48:06.212Z,952.21
2019-04-25T08:49:06.497Z,952.17
2019-04-25T08:50:06.192Z,952.18
2019-04-25T08:51:06.205Z,952.18
2019-04-25T08:52:06.212Z,952.19
2019-04-25T08:53:06.162Z,952.18
2019-04-25T08:54:06.152Z,952.18
2019-04-25T08:55:06.142Z,952.15
2019-04-25T08:56:06.143Z,952.15
2019-04-25T08:57:06.143Z,952.11
2019-04-25T08:58:06.114Z,952.12
2019-04-25T08:59:07.938Z,952.11
2019-04-25T09:00:06.227Z,952.10
2019-04-25T09:01:06.073Z,952.11
2019-04-25T09:02:06.082Z,952.12
2019-04-25T09:03:06.115Z,952.06
2019-04-25T09:04:06.042Z,952.09
2019-04-25T09:05:06.033Z,952.15
2019-04-25T09:06:06.045Z,952.03
2019-04-25T09:07:06.012Z,952.07
2019-04-25T09:08:06.015Z,952.02
2019-04-25T09:09:07.204Z,952.02
2019-04-25T09:10:05.973Z,952.05
2019-04-25T09:11:06.014Z,951.98
2019-04-25T09:12:05.953Z,952.04
2019-04-25T09:13:05.963Z,952.01
2019-04-25T09:14:05.933Z,951.99
2019-04-25T09:15:05.923Z,951.98
2019-04-25T09:16:05.913Z,952.05
2019-04-25T09:17:05.927Z,952.05
2019-04-25T09:18:05.925Z,952.03
2019-04-25T09:19:05.881Z,952.02
2019-04-25T09:20:05.873Z,952.06
2019-04-25T09:21:05.873Z,952.00
2019-04-25T09:22:05.845Z,951.97
2019-04-25T09:23:05.871Z,951.99
2019-04-25T09:24:05.842Z,952.01
2019-04-25T09:25:05.813Z,951.99
2019-04-25T09:26:05.804Z,952.01
2019-04-25T09:27:05.792Z,952.05
2019-04-25T09:28:05.784Z,951.96
2019-04-25T09:29:16.730Z,952.02
2019-04-25T09:30:06.754Z,952.00
2019-04-25T09:31:05.747Z,951.92
2019-04-25T09:32:05.733Z,951.97
2019-04-25T09:33:05.756Z,951.96
2019-04-25T09:34:05.733Z,951.97
2019-04-25T09:35:05.703Z,951.97
2019-04-25T09:36:06.900Z,951.97
2019-04-25T09:37:05.684Z,951.98
2019-04-25T09:38:05.674Z,952.07
2019-04-25T09:39:05.674Z,951.96
2019-04-25T09:40:05.644Z,951.97
2019-04-25T09:41:05.635Z,952.03
2019-04-25T09:42:05.644Z,952.01
2019-04-25T09:43:05.614Z,951.97
2019-04-25T09:44:05.625Z,952.02
2019-04-25T09:45:05.624Z,952.01
2019-04-25T09:46:05.584Z,951.97
2019-04-25T09:47:05.575Z,951.98
2019-04-25T09:48:05.565Z,952.06
2019-04-25T09:49:05.555Z,951.97
2019-04-25T09:50:05.578Z,951.98
2019-04-25T09:51:05.686Z,952.05
2019-04-25T09:52:05.514Z,952.03
2019-04-25T09:53:05.514Z,951.93
2019-04-25T09:54:05.495Z,951.91
2019-04-25T09:55:05.504Z,951.96
2019-04-25T09:56:05.511Z,951.92
2019-04-25T09:57:05.475Z,951.92
2019-04-25T09:58:05.495Z,951.90
2019-04-25T09:59:05.464Z,951.97
2019-04-25T10:00:05.457Z,951.90
2019-04-25T10:01:05.828Z,951.83
2019-04-25T10:02:05.418Z,951.90
2019-04-25T10:03:05.407Z,951.88
2019-04-25T10:04:05.385Z,951.83
2019-04-25T10:05:05.396Z,951.88
2019-04-25T10:06:05.376Z,951.84
2019-04-25T10:07:05.356Z,951.85
2019-04-25T10:08:05.356Z,951.82
2019-04-25T10:09:05.337Z,951.85
2019-04-25T10:10:05.336Z,951.86
2019-04-25T10:11:05.336Z,951.82
2019-04-25T10:12:05.298Z,951.77
2019-04-25T10:13:06.596Z,951.77
2019-04-25T10:14:05.278Z,951.77
2019-04-25T10:15:05.267Z,951.72
2019-04-25T10:16:05.287Z,951.75
2019-04-25T10:17:05.256Z,951.72
2019-04-25T10:18:05.241Z,951.72
2019-04-25T10:19:05.227Z,951.70
2019-04-25T10:20:05.216Z,951.71
2019-04-25T10:21:05.227Z,951.73
2019-04-25T10:22:05.198Z,951.64
2019-04-25T10:23:05.206Z,951.66
2019-04-25T10:24:05.167Z,951.63
2019-04-25T10:25:05.157Z,951.63
2019-04-25T10:26:05.187Z,951.70
2019-04-25T10:27:05.173Z,951.60
2019-04-25T10:28:05.138Z,951.70
2019-04-25T10:29:05.118Z,951.66
2019-04-25T10:30:16.943Z,951.60
2019-04-25T10:31:06.110Z,951.62
2019-04-25T10:32:05.105Z,951.60
2019-04-25T10:33:05.077Z,951.52
2019-04-25T10:34:05.062Z,951.53
2019-04-25T10:35:05.070Z,951.54
2019-04-25T10:36:05.069Z,951.52
2019-04-25T10:37:05.051Z,951.42
2019-04-25T10:38:05.022Z,951.45
2019-04-25T10:39:10.692Z,951.48
2019-04-25T10:40:06.026Z,951.40
2019-04-25T10:41:05.001Z,951.30
2019-04-25T10:42:05.001Z,951.36
2019-04-25T10:43:04.960Z,951.40
2019-04-25T10:44:04.958Z,951.38
2019-04-25T10:45:04.968Z,951.37
2019-04-25T10:46:05.309Z,951.43
2019-04-25T10:47:04.947Z,951.39
2019-04-25T10:48:04.930Z,951.37
2019-04-25T10:49:04.901Z,951.41
2019-04-25T10:50:04.892Z,951.38
2019-04-25T10:51:04.892Z,951.37
2019-04-25T10:52:04.893Z,951.36
2019-04-25T10:53:04.881Z,951.26
2019-04-25T10:54:04.851Z,951.27
2019-04-25T10:55:04.841Z,951.29
2019-04-25T10:56:05.977Z,951.31
2019-04-25T10:57:06.519Z,951.27
2019-04-25T10:58:04.819Z,951.29
2019-04-25T10:59:04.791Z,951.28
2019-04-25T11:00:09.006Z,951.22
2019-04-25T11:01:04.781Z,951.24
2019-04-25T11:02:04.768Z,951.19
2019-04-25T11:03:04.773Z,951.23
2019-04-25T11:04:04.860Z,951.24
2019-04-25T11:05:04.732Z,951.25
2019-04-25T11:06:04.731Z,951.24
2019-04-25T11:07:04.730Z,951.25
2019-04-25T11:08:04.712Z,951.29
2019-04-25T11:09:04.684Z,951.20
2019-04-25T11:10:04.812Z,951.20
2019-04-25T11:11:04.661Z,951.26
2019-04-25T11:12:04.661Z,951.30
2019-04-25T11:13:04.662Z,951.17
2019-04-25T11:14:07.321Z,951.17
2019-04-25T11:15:04.621Z,951.16
2019-04-25T11:16:04.625Z,951.12
2019-04-25T11:17:04.593Z,951.10
2019-04-25T11:18:04.603Z,951.18
2019-04-25T11:19:04.573Z,951.16
2019-04-25T11:20:05.531Z,951.18
2019-04-25T11:21:06.086Z,951.22
2019-04-25T11:22:04.546Z,951.25
2019-04-25T11:23:04.544Z,951.18
2019-04-25T11:24:04.525Z,951.13
2019-04-25T11:25:04.512Z,951.07
2019-04-25T11:26:04.502Z,951.11
2019-04-25T11:27:04.494Z,951.08
2019-04-25T11:28:04.504Z,951.08
2019-04-25T11:29:04.494Z,951.13
2019-04-25T11:30:11.153Z,951.11
2019-04-25T11:31:05.455Z,951.13
2019-04-25T11:32:04.454Z,951.07
2019-04-25T11:33:04.425Z,951.10
2019-04-25T11:34:04.434Z,950.98
2019-04-25T11:35:05.128Z,951.03
2019-04-25T11:36:04.415Z,951.03
2019-04-25T11:37:05.917Z,950.88
2019-04-25T11:38:05.504Z,950.96
2019-04-25T11:39:04.383Z,950.96
2019-04-25T11:40:04.478Z,950.91
2019-04-25T11:41:04.343Z,950.89
2019-04-25T11:42:04.326Z,950.87
2019-04-25T11:43:04.369Z,950.97
2019-04-25T11:44:04.335Z,950.90
2019-04-25T11:45:04.881Z,950.95
2019-04-25T11:46:04.954Z,950.81
2019-04-25T11:47:06.912Z,950.80
2019-04-25T11:48:05.332Z,950.76
2019-04-25T11:49:04.478Z,950.83
2019-04-25T11:50:04.259Z,950.90
2019-04-25T11:51:04.235Z,950.82
2019-04-25T11:52:05.249Z,950.97
2019-04-25T11:53:04.827Z,950.85
2019-04-25T11:54:04.199Z,950.87
2019-04-25T11:55:04.297Z,950.91
2019-04-25T11:56:04.197Z,950.82
2019-04-25T11:57:04.171Z,950.88
2019-04-25T11:58:04.163Z,950.87
2019-04-25T11:59:04.606Z,950.90
2019-04-25T12:00:04.334Z,950.93
2019-04-25T12:01:05.142Z,950.91
2019-04-25T12:02:04.659Z,950.98
2019-04-25T12:03:04.108Z,950.83
2019-04-25T12:04:04.156Z,950.89
2019-04-25T12:05:04.466Z,950.89
2019-04-25T12:06:04.087Z,950.87
2019-04-25T12:07:06.760Z,950.86
2019-04-25T12:08:04.176Z,950.86
2019-04-25T12:09:04.169Z,950.85
2019-04-25T12:10:04.061Z,950.79
2019-04-25T12:11:05.823Z,950.79
2019-04-25T12:12:05.731Z,950.72
2019-04-25T12:13:04.292Z,950.61
2019-04-25T12:14:04.382Z,950.68
2019-04-25T12:15:04.434Z,950.75
2019-04-25T12:16:04.177Z,950.72
2019-04-25T12:17:03.967Z,950.75
2019-04-25T12:18:04.672Z,950.75
2019-04-25T12:19:04.805Z,950.79
2019-04-25T12:20:04.029Z,950.83
2019-04-25T12:21:04.236Z,950.83
2019-04-25T12:22:04.111Z,950.80
2019-04-25T12:23:10.051Z,950.80
2019-04-25T12:24:05.879Z,950.82
2019-04-25T12:25:04.681Z,950.91
2019-04-25T12:26:04.001Z,950.81
2019-04-25T12:27:04.382Z,950.86
2019-04-25T12:28:04.585Z,950.79
2019-04-25T12:29:04.420Z,950.86
2019-04-25T12:30:05.447Z,950.82
2019-04-25T12:31:03.821Z,950.81
2019-04-25T12:32:04.095Z,950.81
2019-04-25T12:33:03.778Z,950.85